Links & Downloads

Hier präsentieren wir eine Auswahl wichtiger Downloads und interessanter Internetseiten. Wir versuchen, diese Seite immer auf aktuellem Stand zu halten.

Dokumente & Programme

  FluPP, ein kostenloses Flugbuch für Windows, mit dem man seine Flüge (Segelflug, Ultraleicht, Motorsegler, Motorflug...) verwalten kann
 
OLC - SegelflugszeneOLC - Segelflugszene

  Alle Streckenflüge des VfS |   Streckenflüge ab Krefeld |   Landesliga - Tabelle

Wetter


METAR / TAF Düsseldorf

[Quelle: ADDS]
METAR
EDDL 251550Z 18006KT 150V210 CAVOK 20/06 Q1006 NOSIG =
EDDL 251100Z 2512/2618 19015G25KT 9999 FEW045 BECMG 2513/2516 20006KT PROB30 TEMPO 2518/2521 24015G25KT SHRA BKN020TCU TEMPO 2519/2522 26006KT TEMPO 2609/2615 24011KT
TAF
EDDL 251100Z 2512/2618 19015G25KT 9999 FEW045 BECMG 2513/2516 20006KT PROB30 TEMPO 2518/2521 24015G25KT SHRA BKN020TCU TEMPO 2519/2522 26006KT TEMPO 2609/2615 24011KT =
SR / SS: 04:16 / 18:45 UTC ( 2019-04-25)

Luftsportportale

Verbände

Behörden

 
Bundesamt für Naturschutz:
Gebiete mit Vogelvorkommen mit besonderer Luftfahrtrelevanz (Aircraft relevant Bird Area)
1.   Allgemein
2.   Niederrhein

Fliegerärzte

Vereinsflieger